Terminal Aerodrome Forecast
Issued by NWS

Current Version | Previous Version | Text Only | Print | Product List | Glossary On
Versions: 1 2 3 4 5 6 7 8 9 10 11 12 13 14 15 16 17 18 19 20
000
FTUS41 KLWX 242300
TAFMTN
TAF
KMTN 242340Z 2500/2524 VRB04KT 1/2SM FG OVC002 WS020/21045KT
     FM250500 23009KT 2SM -SHRA BR BKN008 OVC012 WS020/26045KT
     FM251000 30012KT P6SM SCT060 BKN120
     FM251400 29014G25KT P6SM SCT040
     FM252100 28009KT P6SM FEW250=

USA.gov is the U.S. government's official web portal to all federal, state and local government web resources and services.